Share

Wagga Wagga, New South Wales

1:25 PM EST on April 24, 2014 (GMT +1000)
Kooringal (INSWKOOR2) Elev 823 ft | 35.13 °S, 147.38 °E | Change Station

Current weather conditions updated 8 minutes ago

Clear
Clear
71.0 °F
Feels Like 77 °F
N
1.0
Wind Variable Wind from SSE
Gusts 11.0 mph
Sunrise 6:41 AM
Sunset 5:36 PM
Moon Waning Crescent

Today is forecast to be nearly the same temperature as yesterday.

Pressure 29.98 in
Visibility -9999.0 miles
Clouds
Heat Index 77 °F
Dew Point 48 °F
Humidity 44%
Rainfall 0.00 in
Snow Depth Not available.
UV 4.1 out of 16
Pollen Not available.
Air Quality Not available.
Flu Activity Not available.
METAR YSWG 240300Z 24011KT CAVOK 21/06 Q1015

More Conditions Fewer Conditions

Pressure 29.98 in
Visibility -9999.0 miles
Clouds
Heat Index 77 °F
Dew Point 48 °F
Humidity 44%
Rainfall 0.00 in
Snow Depth Not available.
UV 4.1 out of 16
Pollen Not available.
Air Quality Not available.
Flu Activity Not available.
METAR YSWG 240300Z 24011KT CAVOK 21/06 Q1015

More Conditions Fewer Conditions

10-Day Weather Forecast

Almanac

Astronomy

Apr. 24, 2014 Rise Set
Actual Time 6:41 AM EST 5:36 PM EST
Civil Twilight 6:15 AM EST 6:02 PM EST
Nautical Twilight 5:45 AM EST 6:31 PM EST
Astronomical Twilight 5:16 AM EST 7:01 PM EST
Moon 1:02 AM EST 2:19 PM EST
Length of Visible Light 11h 46m
Length of Day
10h 54m
Tomorrow will be 1m 57s shorter.
Waning Crescent, 30% of the Moon is Illuminated
Apr 23
Waning Crescent
Apr 29
New
May 6
First Quarter
May 14
Full
May 21
Last Quarter

Yesterday's Extremes

Country Highs Country Lows

Community

  • Balance
    Balance
  • Nestled In
    Nestled In
  • Stunning Sunrise
    Stunning Sunrise
  • spring flowers
    spring flowers
  • Earth Day Spectrum Ove' Blue
    Earth Day Spectrum Ove' Blue

WunderPhotos

Upload Photos

1,704,536 photos uploaded!

WunderBlogs® & News

Nearby

Snow Depth

Not available.

Coastal Water Temperatures

Place Temperature
No Stations Reporting

Earthquake Activity

City Distance Mag. Time & Date
No recent earthquake activity has been reported nearby.
Minimum magnitude displayed is 2.5.

Nearby Weather Stations

Station Location Temp. Heat Index Dew Point Humidity Wind Precip. Elev Updated Type
Kooringal, Kooringal 71.0 °F 77 °F 48 °F 44% SSE  at  1.0 mph 0.00 in / hr 823 ft 1:16 PM EST Normal
Kooringal, Kooringal 75.6 °F 77 °F 44 °F 33% North  at  2.7 mph 0.00 in / hr 709 ft 1:25 PM EST Rapid Fire
The Rock, The Rock 68.4 °F - 47 °F 47% ESE  at  3.0 mph 0.00 in / hr 919 ft 1:14 PM EST Normal

Show More Stations Show Fewer Stations

What do you think?

We're not finished. Please let us know what you like, what you don't like, and what you are still missing.